Hobart Ellerslie Road, Australia

3:18 AM AEDT on March 31, 2017 (GMT +1100)
New Town | | Change Station

Elev 171 ft 42.86 °S, 147.31 °E | Updated 1 minute ago

Clear
Clear
42.5 °F
Feels Like 42 °F
N
0.0
Wind Variable Wind from ENE
Gusts 1.0 mph

Today
High -- | Low -- °F
--% Chance of Precip.
Yesterday
High -- | Low -- °F
Precip. -- in
Pressure 30.09 in
Visibility -9999.0 miles
Clouds
Windchill 42 °F
Dew Point 39 °F
Humidity 87%
Rainfall 0.00 in
Snow Depth Not available.
7:25 AM 7:03 PM
Waxing Crescent, 9% visible
METAR YMHB 301600Z 21003KT CAVOK 06/03 Q1019
Pressure 30.09 in
Visibility -9999.0 miles
Clouds
Windchill 42 °F
Dew Point 39 °F
Humidity 87%
Rainfall 0.00 in
Snow Depth Not available.
7:25 AM 7:03 PM
Waxing Crescent, 9% visible
METAR YMHB 301600Z 21003KT CAVOK 06/03 Q1019

Get Severe Weather Alerts

Thanks for signing up!

Be on the lookout for a verification email in your inbox.

You'll start receiving the daily forecast at 8 AM.

×

10-Day Weather Forecast

×

Almanac

Astronomy

Mar. 31, 2017 Rise Set
Actual Time
Civil Twilight
Nautical Twilight
Astronomical Twilight
Moon
Length of Visible Light
Length of Day
Tomorrow will be .
, % of the Moon is Illuminated

Today's Extremes

Country Highs Country Lows

Community

WunderPhotos

Upload Photos

1,962,540 photos uploaded!

WunderBlog® & News

Nearby

Air Quality

  Air Quality AQ Index Pollutant
Not available.

Snow Depth

Station Depth Elevation

Earthquake Activity

City Distance Mag. Time & Date
Minimum magnitude displayed is 2.5.

Earthquake Activity

City Distance Mag. Time & Date
Minimum magnitude displayed is 2.5.

Coastal Water Temperatures

Place Temperature

Stations

Nearby Weather Stations

Station Location Temp. Windchill Dew Point Humidity Wind Precip. Elev Updated Type